| time (UTC) | temp F | wind direction | speed knots | gust knots | rain 1hr in | rain 24hr in | rain mn in | humidity % | barometer mb |
| 20260906022504 | 75 | 360 | 0.0 | 1.7 | 0.00 | 0.02 | 0.02 | 90 | 1011.4 |
| 20260906022004 | 75 | 360 | 0.0 | 1.7 | 0.00 | 0.02 | 0.02 | 90 | 1011.5 |
| 20260906021504 | 75 | 360 | 0.0 | 0.0 | 0.00 | 0.02 | 0.02 | 90 | 1011.3 |
| 20260906021003 | 76 | 360 | 0.0 | 0.0 | 0.00 | 0.02 | 0.02 | 88 | 1011.1 |
| 20260906020504 | 76 | 265 | 0.0 | 1.7 | 0.00 | 0.02 | 0.02 | 87 | 1011.0 |
| 20260906020002 | 77 | 263 | 0.0 | 1.7 | 0.00 | 0.02 | 0.02 | 86 | 1011.0 |
| 20260906015502 | 77 | 360 | 0.0 | 0.9 | 0.00 | 0.02 | 0.02 | 85 | 1010.9 |
| 20260906015002 | 77 | 263 | 0.0 | 0.9 | 0.00 | 0.02 | 0.02 | 85 | 1011.1 |
| 20260906014503 | 77 | 263 | 0.0 | 0.9 | 0.00 | 0.02 | 0.02 | 85 | 1011.1 |
| 20260906014002 | 77 | 360 | 0.0 | 0.9 | 0.00 | 0.02 | 0.02 | 86 | 1011.0 |
| 20260906013502 | 78 | 263 | 0.0 | 0.9 | 0.00 | 0.02 | 0.02 | 83 | 1011.0 |
| 20260906013002 | 77 | 360 | 0.0 | 0.9 | 0.00 | 0.02 | 0.02 | 84 | 1011.0 |
| 20260906012502 | 77 | 263 | 0.0 | 0.0 | 0.00 | 0.02 | 0.02 | 85 | 1011.0 |
| 20260906012002 | 77 | 263 | 0.0 | 0.0 | 0.00 | 0.02 | 0.02 | 85 | 1010.8 |
| 20260906011502 | 78 | 264 | 0.0 | 1.7 | 0.00 | 0.02 | 0.02 | 84 | 1010.6 |
| 20260906011000 | 79 | 264 | 0.0 | 1.7 | 0.00 | 0.02 | 0.02 | 81 | 1010.5 |
| 20260906010500 | 78 | 263 | 0.0 | 1.7 | 0.00 | 0.02 | 0.02 | 83 | 1010.7 |
| 20260906010001 | 78 | 360 | 0.0 | 1.7 | 0.00 | 0.02 | 0.02 | 86 | 1010.8 |
| 20260906005600 | 77 | 360 | 0.0 | 1.7 | 0.00 | 0.02 | 0.02 | 87 | 1010.8 |
| 20260906005101 | 77 | 360 | 0.0 | 0.0 | 0.00 | 0.02 | 0.02 | 88 | 1011.0 |
| 20260906004600 | 77 | 360 | 0.0 | 0.0 | 0.00 | 0.02 | 0.02 | 88 | 1011.1 |
| 20260906004101 | 77 | 360 | 0.0 | 0.0 | 0.00 | 0.02 | 0.02 | 88 | 1011.0 |
| 20260906003601 | 77 | 271 | 0.0 | 0.0 | 0.00 | 0.02 | 0.02 | 88 | 1011.2 |
| 20260906003100 | 78 | 271 | 0.0 | 0.0 | 0.00 | 0.02 | 0.02 | 86 | 1011.2 |
| 20260906002559 | 78 | 271 | 0.0 | 0.0 | 0.00 | 0.02 | 0.02 | 85 | 1011.2 |
| 20260906002101 | 79 | 271 | 0.0 | 0.0 | 0.00 | 0.02 | 0.02 | 84 | 1011.2 |
| 20260906001559 | 78 | 271 | 0.0 | 0.0 | 0.00 | 0.02 | 0.02 | 85 | 1011.0 |
| 20260906001059 | 78 | 271 | 0.0 | 0.0 | 0.00 | 0.02 | 0.02 | 86 | 1011.0 |
| 20260906000559 | 79 | 271 | 0.0 | 0.0 | 0.00 | 0.02 | 0.02 | 85 | 1011.0 |
| 20260906000058 | 80 | 271 | 0.0 | 0.0 | 0.00 | 0.02 | 0.02 | 83 | 1010.9 |
| 20260905235601 | 80 | 271 | 0.0 | 0.9 | 0.00 | 0.02 | 0.02 | 81 | 1011.0 |
| 20260905235100 | 80 | 271 | 0.0 | 0.9 | 0.00 | 0.02 | 0.02 | 81 | 1010.9 |
| 20260905234612 | 79 | 271 | 0.0 | 0.0 | 0.00 | 0.02 | 0.02 | 81 | 1010.7 |
| 20260905234100 | 80 | 271 | 0.0 | 0.0 | 0.00 | 0.02 | 0.02 | 80 | 1010.7 |
| 20260905233558 | 80 | 271 | 0.0 | 0.0 | 0.00 | 0.02 | 0.02 | 79 | 1010.8 |
| 20260905233058 | 81 | 271 | 0.0 | 0.0 | 0.00 | 0.02 | 0.02 | 79 | 1010.8 |
| 20260905232557 | 82 | 271 | 0.0 | 0.9 | 0.00 | 0.02 | 0.02 | 78 | 1010.8 |
| 20260905232057 | 83 | 271 | 0.0 | 0.9 | 0.00 | 0.02 | 0.02 | 75 | 1010.7 |
| 20260905231557 | 83 | 271 | 0.0 | 0.9 | 0.00 | 0.02 | 0.02 | 77 | 1010.8 |
| 20260905231058 | 86 | 271 | 0.0 | 1.7 | 0.00 | 0.02 | 0.02 | 72 | 1010.9 |
| 20260905230557 | 87 | 271 | 0.0 | 1.7 | 0.00 | 0.02 | 0.02 | 63 | 1010.6 |
| 20260905230123 | 87 | 271 | 0.0 | 1.7 | 0.00 | 0.02 | 0.02 | 66 | 1010.7 |
| 20260905225559 | 86 | 279 | 0.0 | 1.7 | 0.00 | 0.02 | 0.02 | 68 | 1010.7 |
| 20260905225056 | 87 | 279 | 0.0 | 0.9 | 0.00 | 0.02 | 0.02 | 70 | 1010.6 |
| 20260905224556 | 88 | 279 | 0.0 | 1.7 | 0.00 | 0.02 | 0.02 | 65 | 1010.6 |
| 20260905224056 | 87 | 279 | 0.0 | 1.7 | 0.00 | 0.02 | 0.02 | 65 | 1010.5 |
| 20260905223555 | 88 | 241 | 0.0 | 1.7 | 0.00 | 0.02 | 0.02 | 64 | 1010.6 |
| 20260905223055 | 88 | 241 | 0.0 | 1.7 | 0.00 | 0.02 | 0.02 | 69 | 1010.8 |
| 20260905222554 | 89 | 241 | 0.0 | 1.7 | 0.00 | 0.02 | 0.02 | 64 | 1010.9 |
| 20260905222054 | 88 | 241 | 0.9 | 1.7 | 0.00 | 0.02 | 0.02 | 63 | 1010.8 |
| 20260905221557 | 89 | 241 | 0.0 | 1.7 | 0.00 | 0.02 | 0.02 | 65 | 1010.9 |
| 20260905221057 | 90 | 241 | 0.0 | 1.7 | 0.00 | 0.02 | 0.02 | 58 | 1011.0 |
| 20260905220553 | 90 | 241 | 0.9 | 1.7 | 0.00 | 0.02 | 0.02 | 59 | 1010.9 |
| 20260905220053 | 89 | 241 | 0.0 | 3.5 | 0.00 | 0.02 | 0.02 | 59 | 1010.9 |
| 20260905215554 | 89 | 241 | 0.0 | 3.5 | 0.00 | 0.02 | 0.02 | 57 | 1010.9 |
| 20260905215057 | 89 | 188 | 0.0 | 2.6 | 0.00 | 0.02 | 0.02 | 62 | 1011.0 |
| 20260905214553 | 89 | 188 | 0.9 | 5.2 | 0.00 | 0.02 | 0.02 | 60 | 1010.9 |
| 20260905214053 | 88 | 192 | 1.7 | 5.2 | 0.00 | 0.02 | 0.02 | 62 | 1011.0 |
| 20260905213553 | 87 | 292 | 0.0 | 1.7 | 0.00 | 0.02 | 0.02 | 68 | 1010.9 |
| 20260905213052 | 85 | 301 | 0.0 | 0.9 | 0.00 | 0.02 | 0.02 | 77 | 1010.8 |
| 20260905212552 | 85 | 301 | 0.0 | 0.9 | 0.00 | 0.02 | 0.02 | 80 | 1010.9 |
| 20260905212052 | 84 | 301 | 0.0 | 0.9 | 0.00 | 0.02 | 0.02 | 84 | 1011.2 |
| 20260905211557 | 82 | 301 | 0.0 | 0.9 | 0.00 | 0.02 | 0.02 | 84 | 1011.3 |
| 20260905211051 | 80 | 301 | 0.0 | 0.0 | 0.00 | 0.02 | 0.02 | 87 | 1011.3 |
| 20260905210550 | 80 | 301 | 0.0 | 0.0 | 0.00 | 0.02 | 0.02 | 87 | 1011.2 |
| 20260905210050 | 80 | 301 | 0.0 | 0.0 | 0.00 | 0.02 | 0.02 | 85 | 1011.4 |
| 20260905205550 | 81 | 301 | 0.0 | 0.0 | 0.00 | 0.02 | 0.02 | 85 | 1011.3 |
| 20260905205050 | 80 | 301 | 0.0 | 0.9 | 0.00 | 0.02 | 0.02 | 83 | 1011.2 |
| 20260905204550 | 82 | 301 | 0.0 | 0.9 | 0.00 | 0.02 | 0.02 | 81 | 1011.1 |
| 20260905204049 | 81 | 301 | 0.0 | 0.9 | 0.00 | 0.02 | 0.02 | 81 | 1011.1 |
| 20260905203549 | 81 | 301 | 0.0 | 0.9 | 0.00 | 0.02 | 0.02 | 81 | 1011.5 |
| 20260905203055 | 83 | 328 | 0.0 | 2.6 | 0.00 | 0.02 | 0.02 | 76 | 1011.5 |
| 20260905202547 | 84 | 175 | 0.9 | 2.6 | 0.00 | 0.02 | 0.02 | 70 | 1011.7 |
| 20260905202048 | 85 | 175 | 0.0 | 2.6 | 0.00 | 0.02 | 0.02 | 68 | 1011.6 |
| 20260905201548 | 85 | 188 | 0.0 | 2.6 | 0.00 | 0.02 | 0.02 | 71 | 1011.7 |
| 20260905201046 | 83 | 259 | 0.9 | 1.7 | 0.00 | 0.02 | 0.02 | 73 | 1011.9 |
| 20260905200547 | 81 | 291 | 0.0 | 1.7 | 0.01 | 0.02 | 0.02 | 78 | 1011.7 |
| 20260905200046 | 79 | 309 | 0.0 | 1.7 | 0.02 | 0.02 | 0.02 | 75 | 1011.7 |
| 20260905195546 | 78 | 309 | 0.0 | 1.7 | 0.02 | 0.02 | 0.02 | 80 | 1011.8 |
| 20260905195049 | 76 | 309 | 0.0 | 1.7 | 0.02 | 0.02 | 0.02 | 87 | 1012.0 |
| 20260905194544 | 74 | 360 | 0.0 | 0.9 | 0.02 | 0.02 | 0.02 | 89 | 1012.0 |
| 20260905194045 | 74 | 360 | 0.0 | 0.9 | 0.02 | 0.02 | 0.02 | 90 | 1012.2 |
| 20260905193544 | 73 | 360 | 0.0 | 1.7 | 0.02 | 0.02 | 0.02 | 89 | 1011.9 |
| 20260905193102 | 74 | 360 | 0.0 | 1.7 | 0.02 | 0.02 | 0.02 | 88 | 1012.1 |
| 20260905192543 | 74 | 360 | 0.0 | 4.3 | 0.02 | 0.02 | 0.02 | 85 | 1012.0 |
| 20260905192043 | 74 | 360 | 1.7 | 5.2 | 0.02 | 0.02 | 0.02 | 83 | 1012.3 |
| 20260905191544 | 75 | 360 | 0.9 | 5.2 | 0.02 | 0.02 | 0.02 | 82 | 1012.4 |
| 20260905191042 | 76 | 360 | 1.7 | 5.2 | 0.02 | 0.02 | 0.02 | 81 | 1012.6 |
| 20260905190543 | 77 | 275 | 0.9 | 6.1 | 0.01 | 0.01 | 0.01 | 80 | 1012.8 |
| 20260905190042 | 79 | 263 | 0.9 | 5.2 | 0.00 | 0.00 | 0.00 | 76 | 1012.9 |
| 20260905185541 | 81 | 275 | 1.7 | 5.2 | 0.00 | 0.00 | 0.00 | 74 | 1012.8 |
| 20260905185042 | 83 | 281 | 0.0 | 6.1 | 0.00 | 0.00 | 0.00 | 73 | 1012.5 |
| 20260905184542 | 85 | 267 | 0.9 | 6.1 | 0.00 | 0.00 | 0.00 | 71 | 1012.6 |
| 20260905184041 | 86 | 21 | 0.9 | 4.3 | 0.00 | 0.00 | 0.00 | 70 | 1012.6 |
| 20260905183543 | 88 | 32 | 1.7 | 7.0 | 0.00 | 0.00 | 0.00 | 68 | 1012.6 |
| 20260905183046 | 89 | 310 | 1.7 | 7.0 | 0.00 | 0.00 | 0.00 | 65 | 1012.3 |
| 20260905182541 | 91 | 56 | 0.9 | 7.8 | 0.00 | 0.00 | 0.00 | 61 | 1012.4 |
| 20260905182041 | 93 | 336 | 1.7 | 4.3 | 0.00 | 0.00 | 0.00 | 58 | 1012.0 |
| 20260905181541 | 94 | 336 | 1.7 | 5.2 | 0.00 | 0.00 | 0.00 | 57 | 1012.3 |
| 20260905181039 | 93 | 53 | 1.7 | 5.2 | 0.00 | 0.00 | 0.00 | 58 | 1012.3 |
| 20260905180539 | 93 | 261 | 0.9 | 3.5 | 0.00 | 0.00 | 0.00 | 59 | 1012.2 |
| 20260905180038 | 93 | 233 | 0.9 | 5.2 | 0.00 | 0.00 | 0.00 | 56 | 1012.4 |
| 20260905175538 | 95 | 38 | 2.6 | 5.2 | 0.00 | 0.00 | 0.00 | 54 | 1012.7 |
| 20260905175037 | 95 | 271 | 1.7 | 7.0 | 0.00 | 0.00 | 0.00 | 54 | 1012.7 |
| 20260905174535 | 95 | 265 | 1.7 | 6.1 | 0.00 | 0.00 | 0.00 | 56 | 1012.7 |
| 20260905174034 | 94 | 360 | 0.9 | 3.5 | 0.00 | 0.00 | 0.00 | 58 | 1012.6 |
| 20260905173533 | 94 | 13 | 0.9 | 4.3 | 0.00 | 0.00 | 0.00 | 57 | 1012.7 |
| 20260905173030 | 93 | 65 | 0.9 | 4.3 | 0.00 | 0.00 | 0.00 | 56 | 1012.8 |
| 20260905172530 | 94 | 99 | 1.7 | 7.8 | 0.00 | 0.00 | 0.00 | 57 | 1012.8 |
| 20260905172030 | 93 | 102 | 1.7 | 7.8 | 0.00 | 0.00 | 0.00 | 58 | 1012.9 |
| 20260905171535 | 93 | 250 | 1.7 | 4.3 | 0.00 | 0.00 | 0.00 | 56 | 1012.8 |
| 20260905171027 | 93 | 311 | 0.9 | 5.2 | 0.00 | 0.00 | 0.00 | 56 | 1012.9 |
| 20260905170527 | 93 | 59 | 1.7 | 3.5 | 0.00 | 0.00 | 0.00 | 58 | 1012.9 |
| 20260905170025 | 93 | 37 | 0.9 | 4.3 | 0.00 | 0.00 | 0.00 | 57 | 1012.9 |
| 20260905165524 | 92 | 294 | 1.7 | 6.1 | 0.00 | 0.00 | 0.00 | 58 | 1013.0 |
| 20260905165023 | 93 | 115 | 0.9 | 4.3 | 0.00 | 0.00 | 0.00 | 61 | 1013.0 |
| 20260905164525 | 92 | 288 | 0.9 | 4.3 | 0.00 | 0.00 | 0.00 | 60 | 1013.2 |
| 20260905164022 | 92 | 86 | 0.9 | 3.5 | 0.00 | 0.00 | 0.00 | 60 | 1013.3 |
| 20260905163525 | 92 | 91 | 0.9 | 3.5 | 0.00 | 0.00 | 0.00 | 61 | 1013.4 |
| 20260905163021 | 91 | 323 | 0.9 | 3.5 | 0.00 | 0.00 | 0.00 | 63 | 1013.5 |
| 20260905162522 | 92 | 67 | 1.7 | 3.5 | 0.00 | 0.00 | 0.00 | 61 | 1013.5 |
| 20260905162020 | 92 | 248 | 1.7 | 3.5 | 0.00 | 0.00 | 0.00 | 62 | 1013.6 |
| 20260905161519 | 91 | 48 | 0.9 | 2.6 | 0.00 | 0.00 | 0.00 | 63 | 1013.6 |
| 20260905161018 | 91 | 46 | 0.9 | 3.5 | 0.00 | 0.00 | 0.00 | 65 | 1013.6 |
| 20260905160515 | 91 | 32 | 0.9 | 3.5 | 0.00 | 0.00 | 0.00 | 64 | 1013.7 |
| 20260905160024 | 90 | 57 | 0.0 | 3.5 | 0.00 | 0.00 | 0.00 | 64 | 1013.6 |
| 20260905155513 | 89 | 312 | 0.9 | 3.5 | 0.00 | 0.00 | 0.00 | 65 | 1013.7 |
| 20260905155014 | 89 | 64 | 0.9 | 3.5 | 0.00 | 0.00 | 0.00 | 67 | 1013.7 |
| 20260905154511 | 89 | 70 | 1.7 | 3.5 | 0.00 | 0.00 | 0.00 | 66 | 1013.6 |
| 20260905154011 | 88 | 243 | 1.7 | 3.5 | 0.00 | 0.00 | 0.00 | 66 | 1013.7 |
| 20260905153511 | 88 | 290 | 0.9 | 2.6 | 0.00 | 0.00 | 0.00 | 66 | 1013.7 |
| 20260905153009 | 88 | 115 | 0.9 | 2.6 | 0.00 | 0.00 | 0.00 | 69 | 1013.8 |
| 20260905152508 | 88 | 117 | 1.7 | 2.6 | 0.00 | 0.00 | 0.00 | 69 | 1013.9 |
| 20260905152007 | 87 | 164 | 0.9 | 4.3 | 0.00 | 0.00 | 0.00 | 69 | 1014.0 |
| 20260905151505 | 87 | 279 | 0.9 | 3.5 | 0.00 | 0.00 | 0.00 | 69 | 1013.9 |
| 20260905151003 | 87 | 252 | 0.9 | 3.5 | 0.00 | 0.00 | 0.00 | 69 | 1014.0 |
| 20260905150501 | 86 | 244 | 0.9 | 3.5 | 0.00 | 0.00 | 0.00 | 71 | 1014.1 |
| 20260905150114 | 85 | 236 | 0.0 | 3.5 | 0.00 | 0.00 | 0.00 | 71 | 1014.0 |
| 20260905145600 | 85 | 260 | 0.9 | 3.5 | 0.00 | 0.00 | 0.00 | 72 | 1014.0 |
| 20260905145058 | 85 | 171 | 0.9 | 3.5 | 0.00 | 0.00 | 0.00 | 73 | 1013.9 |
| 20260905144556 | 84 | 223 | 0.9 | 3.5 | 0.00 | 0.00 | 0.00 | 73 | 1014.0 |
| 20260905144059 | 83 | 252 | 0.0 | 2.6 | 0.00 | 0.00 | 0.00 | 76 | 1014.1 |
| 20260905143554 | 82 | 219 | 0.9 | 3.5 | 0.00 | 0.00 | 0.00 | 76 | 1014.1 |
| 20260905143055 | 82 | 250 | 0.9 | 3.5 | 0.00 | 0.00 | 0.00 | 77 | 1014.0 |
| 20260905142553 | 81 | 180 | 0.9 | 3.5 | 0.00 | 0.00 | 0.00 | 77 | 1014.1 |
| 20260905142050 | 81 | 234 | 1.7 | 3.5 | 0.00 | 0.00 | 0.00 | 78 | 1014.0 |
| 20260905141550 | 81 | 190 | 0.0 | 2.6 | 0.00 | 0.00 | 0.00 | 78 | 1014.0 |
| 20260905141048 | 81 | 190 | 0.9 | 2.6 | 0.00 | 0.00 | 0.00 | 79 | 1014.1 |
| 20260905140547 | 80 | 168 | 0.0 | 4.3 | 0.00 | 0.00 | 0.00 | 80 | 1014.2 |
| 20260905140046 | 80 | 168 | 1.7 | 4.3 | 0.00 | 0.00 | 0.00 | 80 | 1014.2 |
| 20260905135544 | 79 | 158 | 1.7 | 4.3 | 0.00 | 0.00 | 0.00 | 81 | 1014.1 |
| 20260905135042 | 79 | 148 | 0.0 | 4.3 | 0.00 | 0.00 | 0.00 | 85 | 1014.1 |
| 20260905134546 | 78 | 148 | 0.9 | 3.5 | 0.00 | 0.00 | 0.00 | 85 | 1014.1 |
| 20260905134040 | 77 | 113 | 0.0 | 1.7 | 0.00 | 0.00 | 0.00 | 89 | 1014.1 |
| 20260905133539 | 77 | 113 | 0.0 | 0.9 | 0.00 | 0.00 | 0.00 | 88 | 1014.1 |
| 20260905133037 | 76 | 113 | 0.0 | 0.0 | 0.00 | 0.00 | 0.00 | 91 | 1014.1 |
| 20260905132537 | 76 | 113 | 0.0 | 1.7 | 0.00 | 0.00 | 0.00 | 90 | 1014.1 |
| 20260905132037 | 76 | 113 | 0.0 | 1.7 | 0.00 | 0.00 | 0.00 | 89 | 1014.2 |
| 20260905131535 | 76 | 108 | 0.0 | 0.9 | 0.00 | 0.00 | 0.00 | 91 | 1014.3 |
| 20260905131033 | 76 | 67 | 0.0 | 1.7 | 0.00 | 0.00 | 0.00 | 90 | 1014.5 |
| 20260905130534 | 76 | 67 | 0.0 | 1.7 | 0.00 | 0.00 | 0.00 | 89 | 1014.5 |
| 20260905130032 | 75 | 67 | 0.0 | 1.7 | 0.00 | 0.00 | 0.00 | 90 | 1014.4 |
| 20260905125530 | 75 | 65 | 0.0 | 1.7 | 0.00 | 0.00 | 0.00 | 91 | 1014.4 |
| 20260905125029 | 75 | 196 | 0.0 | 1.7 | 0.00 | 0.00 | 0.00 | 91 | 1014.5 |
| 20260905124528 | 75 | 196 | 0.0 | 3.5 | 0.00 | 0.00 | 0.00 | 92 | 1014.7 |
| 20260905124026 | 74 | 196 | 0.0 | 3.5 | 0.00 | 0.00 | 0.00 | 93 | 1014.6 |
| 20260905123524 | 74 | 257 | 0.0 | 1.7 | 0.00 | 0.00 | 0.00 | 96 | 1014.5 |
| 20260905123023 | 74 | 323 | 0.0 | 0.0 | 0.00 | 0.00 | 0.00 | 96 | 1014.4 |
| 20260905122524 | 73 | 323 | 0.0 | 0.0 | 0.00 | 0.00 | 0.00 | 96 | 1014.3 |
| 20260905122021 | 73 | 323 | 0.0 | 0.0 | 0.00 | 0.00 | 0.00 | 96 | 1014.2 |
| 20260905121519 | 73 | 323 | 0.0 | 0.0 | 0.00 | 0.00 | 0.00 | 97 | 1014.2 |
| 20260905121018 | 73 | 323 | 0.0 | 0.0 | 0.00 | 0.00 | 0.00 | 97 | 1014.1 |
| 20260905120517 | 73 | 323 | 0.0 | 0.0 | 0.00 | 0.00 | 0.00 | 97 | 1014.1 |
| 20260905120023 | 73 | 323 | 0.0 | 0.0 | 0.00 | 0.00 | 0.00 | 97 | 1014.1 |
| 20260905115515 | 73 | 323 | 0.0 | 0.0 | 0.00 | 0.00 | 0.00 | 97 | 1014.0 |
| 20260905115014 | 73 | 322 | 0.0 | 0.0 | 0.00 | 0.00 | 0.00 | 97 | 1014.0 |
| 20260905114513 | 72 | 323 | 0.0 | 0.0 | 0.00 | 0.00 | 0.00 | 97 | 1013.8 |
| 20260905114012 | 72 | 323 | 0.0 | 0.0 | 0.00 | 0.00 | 0.00 | 97 | 1013.8 |
| 20260905113511 | 72 | 323 | 0.0 | 0.0 | 0.00 | 0.00 | 0.00 | 97 | 1013.7 |
| 20260905113012 | 72 | 323 | 0.0 | 0.0 | 0.00 | 0.00 | 0.00 | 97 | 1013.7 |
| 20260905112511 | 72 | 323 | 0.0 | 0.9 | 0.00 | 0.00 | 0.00 | 97 | 1013.6 |
| 20260905112009 | 72 | 323 | 0.0 | 0.9 | 0.00 | 0.00 | 0.00 | 97 | 1013.6 |
| 20260905111510 | 72 | 323 | 0.0 | 0.0 | 0.00 | 0.00 | 0.00 | 97 | 1013.6 |
| 20260905111015 | 72 | 323 | 0.0 | 0.0 | 0.00 | 0.00 | 0.00 | 97 | 1013.5 |
| 20260905110508 | 72 | 323 | 0.0 | 0.0 | 0.00 | 0.00 | 0.00 | 97 | 1013.4 |
| 20260905110009 | 72 | 323 | 0.0 | 0.0 | 0.00 | 0.00 | 0.00 | 97 | 1013.4 |
| 20260905105512 | 71 | 323 | 0.0 | 0.0 | 0.00 | 0.00 | 0.00 | 97 | 1013.4 |
| 20260905105011 | 71 | 323 | 0.0 | 0.0 | 0.00 | 0.00 | 0.00 | 97 | 1013.3 |
| 20260905104508 | 71 | 323 | 0.0 | 0.0 | 0.00 | 0.00 | 0.00 | 97 | 1013.3 |
| 20260905104007 | 71 | 323 | 0.0 | 0.0 | 0.00 | 0.00 | 0.00 | 97 | 1013.2 |
| 20260905103507 | 71 | 323 | 0.0 | 0.0 | 0.00 | 0.00 | 0.00 | 97 | 1013.1 |
| 20260905103009 | 71 | 323 | 0.0 | 0.0 | 0.00 | 0.00 | 0.00 | 97 | 1013.0 |
| 20260905102506 | 71 | 323 | 0.0 | 0.0 | 0.00 | 0.00 | 0.00 | 96 | 1013.0 |
| 20260905102006 | 71 | 323 | 0.0 | 0.0 | 0.00 | 0.00 | 0.00 | 96 | 1013.0 |
| 20260905101506 | 71 | 323 | 0.0 | 0.0 | 0.00 | 0.00 | 0.00 | 96 | 1013.0 |
| 20260905101005 | 71 | 323 | 0.0 | 0.0 | 0.00 | 0.00 | 0.00 | 96 | 1013.0 |
| 20260905100505 | 71 | 323 | 0.0 | 0.0 | 0.00 | 0.00 | 0.00 | 96 | 1013.0 |
| 20260905100005 | 72 | 323 | 0.0 | 0.0 | 0.00 | 0.00 | 0.00 | 95 | 1013.0 |
| 20260905095508 | 72 | 323 | 0.0 | 0.0 | 0.00 | 0.00 | 0.00 | 95 | 1012.9 |
| 20260905095003 | 72 | 323 | 0.0 | 0.0 | 0.00 | 0.00 | 0.00 | 95 | 1012.9 |
| 20260905094505 | 72 | 323 | 0.0 | 0.0 | 0.00 | 0.00 | 0.00 | 95 | 1012.8 |
| 20260905094003 | 72 | 323 | 0.0 | 0.0 | 0.00 | 0.00 | 0.00 | 95 | 1012.8 |
| 20260905093503 | 72 | 323 | 0.0 | 0.9 | 0.00 | 0.00 | 0.00 | 94 | 1012.8 |
| 20260905093001 | 72 | 323 | 0.0 | 0.9 | 0.00 | 0.00 | 0.00 | 94 | 1012.8 |
| 20260905092500 | 72 | 323 | 0.0 | 0.0 | 0.00 | 0.00 | 0.00 | 94 | 1012.6 |
| 20260905092001 | 72 | 323 | 0.0 | 0.0 | 0.00 | 0.00 | 0.00 | 94 | 1012.6 |
| 20260905091501 | 72 | 323 | 0.0 | 0.0 | 0.00 | 0.00 | 0.00 | 94 | 1012.6 |
| 20260905091100 | 72 | 323 | 0.0 | 0.0 | 0.00 | 0.00 | 0.00 | 94 | 1012.6 |
| 20260905090559 | 72 | 323 | 0.0 | 0.0 | 0.00 | 0.00 | 0.00 | 95 | 1012.4 |
| 20260905085559 | 72 | 323 | 0.0 | 0.9 | 0.00 | 0.00 | 0.00 | 94 | 1012.6 |
| 20260905085058 | 72 | 323 | 0.0 | 0.9 | 0.00 | 0.00 | 0.00 | 95 | 1012.6 |
| 20260905084558 | 72 | 323 | 0.0 | 0.0 | 0.00 | 0.00 | 0.00 | 94 | 1012.9 |
| 20260905084101 | 72 | 323 | 0.0 | 0.0 | 0.00 | 0.00 | 0.00 | 94 | 1012.8 |
| 20260905083600 | 73 | 323 | 0.0 | 0.9 | 0.00 | 0.00 | 0.00 | 94 | 1012.7 |
| 20260905083056 | 73 | 323 | 0.0 | 0.9 | 0.00 | 0.00 | 0.00 | 94 | 1012.8 |
| 20260905082556 | 73 | 323 | 0.0 | 0.9 | 0.00 | 0.00 | 0.00 | 94 | 1012.8 |
| 20260905082056 | 73 | 323 | 0.0 | 0.0 | 0.00 | 0.00 | 0.00 | 94 | 1012.8 |
| 20260905081556 | 73 | 323 | 0.0 | 0.0 | 0.00 | 0.00 | 0.00 | 94 | 1012.8 |
| 20260905081055 | 73 | 323 | 0.0 | 0.0 | 0.00 | 0.00 | 0.00 | 94 | 1012.9 |
| 20260905080557 | 72 | 323 | 0.0 | 0.0 | 0.00 | 0.00 | 0.00 | 94 | 1012.9 |
| 20260905080054 | 72 | 323 | 0.0 | 0.0 | 0.00 | 0.00 | 0.00 | 94 | 1013.0 |
| 20260905075554 | 73 | 323 | 0.0 | 0.9 | 0.00 | 0.00 | 0.00 | 94 | 1013.0 |
| 20260905075054 | 73 | 323 | 0.0 | 0.9 | 0.00 | 0.00 | 0.00 | 94 | 1013.2 |
| 20260905074553 | 72 | 323 | 0.0 | 0.0 | 0.00 | 0.00 | 0.00 | 94 | 1013.2 |
| 20260905074052 | 72 | 323 | 0.0 | 0.0 | 0.00 | 0.00 | 0.00 | 94 | 1013.1 |
| 20260905073554 | 73 | 323 | 0.0 | 0.0 | 0.00 | 0.00 | 0.00 | 94 | 1013.2 |
| 20260905073052 | 73 | 323 | 0.0 | 0.0 | 0.00 | 0.00 | 0.00 | 94 | 1013.2 |
| 20260905072550 | 73 | 323 | 0.0 | 0.0 | 0.00 | 0.00 | 0.00 | 94 | 1013.1 |
| 20260905072050 | 73 | 323 | 0.0 | 0.0 | 0.00 | 0.00 | 0.00 | 94 | 1013.1 |
| 20260905071550 | 73 | 323 | 0.0 | 0.0 | 0.00 | 0.00 | 0.00 | 93 | 1013.1 |
| 20260905071052 | 73 | 323 | 0.0 | 0.0 | 0.00 | 0.00 | 0.00 | 93 | 1013.1 |
| 20260905070548 | 73 | 360 | 0.0 | 0.0 | 0.00 | 0.00 | 0.00 | 93 | 1013.2 |
| 20260905070049 | 73 | 323 | 0.0 | 0.9 | 0.00 | 0.00 | 0.00 | 93 | 1013.2 |
| 20260905065548 | 73 | 323 | 0.0 | 0.9 | 0.00 | 0.00 | 0.00 | 93 | 1013.2 |
| 20260905065048 | 73 | 323 | 0.0 | 0.0 | 0.00 | 0.00 | 0.00 | 93 | 1013.2 |
| 20260905064552 | 73 | 323 | 0.0 | 0.0 | 0.00 | 0.00 | 0.00 | 93 | 1013.2 |
| 20260905064048 | 73 | 323 | 0.0 | 0.0 | 0.00 | 0.00 | 0.00 | 93 | 1013.3 |
| 20260905063548 | 73 | 323 | 0.0 | 0.0 | 0.00 | 0.00 | 0.00 | 93 | 1013.2 |
| 20260905063048 | 73 | 323 | 0.0 | 0.0 | 0.00 | 0.00 | 0.00 | 93 | 1013.3 |
| 20260905062545 | 73 | 323 | 0.0 | 0.0 | 0.00 | 0.00 | 0.00 | 93 | 1013.3 |
| 20260905062046 | 73 | 323 | 0.0 | 0.0 | 0.00 | 0.00 | 0.00 | 92 | 1013.3 |
| 20260905061553 | 74 | 323 | 0.0 | 0.0 | 0.00 | 0.00 | 0.00 | 92 | 1013.3 |
| 20260905061045 | 74 | 323 | 0.0 | 0.0 | 0.00 | 0.00 | 0.00 | 92 | 1013.3 |
| 20260905060544 | 74 | 323 | 0.0 | 0.0 | 0.00 | 0.00 | 0.00 | 92 | 1013.4 |
| 20260905060048 | 74 | 323 | 0.0 | 0.0 | 0.00 | 0.00 | 0.00 | 92 | 1013.6 |
| 20260905055543 | 74 | 323 | 0.0 | 0.9 | 0.00 | 0.00 | 0.00 | 91 | 1013.7 |
| 20260905055046 | 74 | 323 | 0.0 | 0.9 | 0.00 | 0.00 | 0.00 | 92 | 1013.8 |
| 20260905054541 | 74 | 323 | 0.0 | 0.9 | 0.00 | 0.00 | 0.00 | 92 | 1013.8 |
| 20260905054039 | 74 | 323 | 0.0 | 0.9 | 0.00 | 0.00 | 0.00 | 93 | 1013.7 |
| 20260905053539 | 73 | 321 | 0.0 | 0.9 | 0.00 | 0.00 | 0.00 | 93 | 1013.9 |
| 20260905053039 | 73 | 321 | 0.0 | 0.0 | 0.00 | 0.00 | 0.00 | 93 | 1013.7 |
| 20260905052537 | 73 | 322 | 0.0 | 0.0 | 0.00 | 0.00 | 0.00 | 92 | 1013.8 |
| 20260905052037 | 74 | 360 | 0.0 | 0.0 | 0.00 | 0.00 | 0.00 | 92 | 1013.7 |
| 20260905051536 | 74 | 322 | 0.0 | 0.0 | 0.00 | 0.00 | 0.00 | 92 | 1013.6 |
| 20260905051034 | 74 | 322 | 0.0 | 0.0 | 0.00 | 0.00 | 0.00 | 92 | 1013.5 |
| 20260905050533 | 74 | 321 | 0.0 | 0.0 | 0.00 | 0.00 | 0.00 | 92 | 1013.5 |
| 20260905050032 | 74 | 322 | 0.0 | 0.0 | 0.00 | 0.00 | 0.00 | 92 | 1013.5 |
| 20260905045531 | 74 | 321 | 0.0 | 0.0 | 0.00 | 0.00 | 0.00 | 91 | 1013.5 |
| 20260905045031 | 74 | 322 | 0.0 | 0.0 | 0.00 | 0.00 | 0.00 | 91 | 1013.4 |
| 20260905044531 | 74 | 323 | 0.0 | 0.0 | 0.00 | 0.00 | 0.00 | 91 | 1013.4 |
| 20260905044031 | 75 | 323 | 0.0 | 0.0 | 0.00 | 0.00 | 0.00 | 91 | 1013.5 |
| 20260905043532 | 75 | 323 | 0.0 | 0.0 | 0.00 | 0.00 | 0.00 | 91 | 1013.4 |
| 20260905043031 | 75 | 323 | 0.0 | 0.0 | 0.00 | 0.00 | 0.00 | 91 | 1013.6 |
| 20260905042530 | 75 | 323 | 0.0 | 0.0 | 0.00 | 0.00 | 0.00 | 91 | 1013.7 |
| 20260905042031 | 75 | 323 | 0.0 | 0.0 | 0.00 | 0.00 | 0.00 | 90 | 1013.6 |
| 20260905041532 | 75 | 322 | 0.0 | 0.0 | 0.00 | 0.00 | 0.00 | 90 | 1013.5 |
| 20260905041029 | 75 | 322 | 0.0 | 0.0 | 0.00 | 0.00 | 0.00 | 91 | 1013.6 |
| 20260905040532 | 75 | 322 | 0.0 | 0.0 | 0.00 | 0.00 | 0.00 | 90 | 1013.7 |
| 20260905040033 | 75 | 322 | 0.0 | 0.0 | 0.00 | 0.00 | 0.00 | 90 | 1013.9 |
| 20260905035530 | 76 | 360 | 0.0 | 0.0 | 0.00 | 0.00 | 0.00 | 90 | 1013.7 |
| 20260905035029 | 76 | 360 | 0.0 | 0.0 | 0.00 | 0.00 | 0.00 | 89 | 1013.7 |
| 20260905034533 | 76 | 322 | 0.0 | 0.0 | 0.00 | 0.00 | 0.00 | 88 | 1013.6 |
| 20260905034029 | 76 | 360 | 0.0 | 0.0 | 0.00 | 0.00 | 0.00 | 88 | 1013.5 |
| 20260905033532 | 76 | 360 | 0.0 | 0.0 | 0.00 | 0.00 | 0.00 | 88 | 1013.5 |
| 20260905033030 | 77 | 323 | 0.0 | 0.0 | 0.00 | 0.00 | 0.00 | 88 | 1013.6 |
| 20260905032529 | 77 | 323 | 0.0 | 0.0 | 0.00 | 0.00 | 0.00 | 87 | 1013.7 |
| 20260905032030 | 77 | 323 | 0.0 | 0.0 | 0.00 | 0.00 | 0.00 | 86 | 1013.9 |
| 20260905031532 | 78 | 323 | 0.0 | 0.9 | 0.00 | 0.00 | 0.00 | 85 | 1014.0 |
| 20260905031027 | 78 | 323 | 0.0 | 0.9 | 0.00 | 0.00 | 0.00 | 85 | 1014.1 |
| 20260905030528 | 77 | 323 | 0.0 | 0.9 | 0.00 | 0.00 | 0.00 | 85 | 1014.2 |
| 20260905030031 | 78 | 323 | 0.0 | 0.0 | 0.00 | 0.00 | 0.00 | 85 | 1014.3 |
| 20260905025527 | 78 | 323 | 0.0 | 0.0 | 0.00 | 0.00 | 0.00 | 85 | 1014.1 |
| 20260905025027 | 78 | 323 | 0.0 | 0.0 | 0.00 | 0.00 | 0.00 | 85 | 1014.2 |
| 20260905024528 | 78 | 323 | 0.0 | 0.0 | 0.00 | 0.00 | 0.00 | 84 | 1014.2 |
| 20260905024027 | 79 | 323 | 0.0 | 1.7 | 0.00 | 0.00 | 0.00 | 83 | 1013.9 |
| 20260905023527 | 80 | 323 | 0.0 | 1.7 | 0.00 | 0.00 | 0.00 | 80 | 1013.8 |
| 20260905023027 | 80 | 323 | 0.0 | 1.7 | 0.00 | 0.00 | 0.00 | 81 | 1013.7 |